This is the latest recevied weather packets stored in our database for station/object XE2RCS-1. If no packets are shown the sender has not sent any weather packets the latest 10 day(s).
| Time | Temp. | Humidity | Pressure | Rain* | Wind** | Luminosity | Snow |
|---|---|---|---|---|---|---|---|
| 1778187764 | 29.44° C | 84% | 1009 hPa | 0 mm | - | - | - |
| 1778187163 | 26.11° C | 51% | 1009 hPa | 0 mm | - | - | - |
| 1778186562 | 26.11° C | 50% | 1009 hPa | 0 mm | - | - | - |
| 1778185962 | 26.67° C | 50% | 1009 hPa | 0 mm | - | - | - |
| 1778185361 | 27.22° C | 49% | 1010 hPa | 0 mm | - | - | - |
| 1778184761 | 27.22° C | 48% | 1010 hPa | 0 mm | - | - | - |
| 1778184160 | 27.78° C | 48% | 1010 hPa | 0 mm | - | - | - |
| 1778183559 | 27.22° C | 47% | 1011 hPa | 0 mm | - | - | - |
| 1778182959 | 27.22° C | 47% | 1011 hPa | 0 mm | - | - | - |
| 1778182358 | 27.22° C | 47% | 1011 hPa | 0 mm | - | - | - |
| 1778181680 | 27.22° C | 47% | 1014 hPa | 0 mm | - | - | - |
| 1778181080 | 27.22° C | 44% | 1015 hPa | 0 mm | - | - | - |
| 1778180479 | 27.22° C | 44% | 1013 hPa | 0 mm | - | - | - |
| 1778179878 | 27.22° C | 45% | 1013 hPa | 0 mm | - | - | - |
| 1778179278 | 26.67° C | 46% | 1013 hPa | 0 mm | - | - | - |
| 1778178677 | 26.67° C | 47% | 1012 hPa | 0 mm | - | - | - |
| 1778178076 | 26.67° C | 48% | 1016 hPa | 0 mm | - | - | - |
| 1778177476 | 26.67° C | 49% | 1016 hPa | 0 mm | - | - | - |
| 1778176875 | 26.67° C | 50% | 1014 hPa | 0 mm | - | - | - |
| 1778176274 | 26.67° C | 50% | 1014 hPa | 0 mm | - | - | - |
| 1778175674 | 25.56° C | 51% | 1014 hPa | 0 mm | - | - | - |
| 1778175073 | 25.56° C | 52% | 1014 hPa | 0 mm | - | - | - |
| 1778174472 | 25° C | 54% | 1016 hPa | 0 mm | - | - | - |
| 1778173872 | 25° C | 55% | 1016 hPa | 0 mm | - | - | - |
| 1778173271 | 25° C | 56% | 1015 hPa | 0 mm | - | - | - |
* Rain latest hour (hover to see other rain measurements)
** Current wind speed in m/s (hover to see current wind gust speed)